sensor_id;sensor_type;location;lat;lon;timestamp;temperature;humidity
13806;DHT22;6974;53.606;9.872;2022-12-16T00:01:06;1.00;99.90
13806;DHT22;6974;53.606;9.872;2022-12-16T00:03:33;1.00;99.90
13806;DHT22;6974;53.606;9.872;2022-12-16T00:06:00;1.00;99.90
13806;DHT22;6974;53.606;9.872;2022-12-16T00:08:32;1.00;99.90
13806;DHT22;6974;53.606;9.872;2022-12-16T00:11:01;1.00;99.90
13806;DHT22;6974;53.606;9.872;2022-12-16T00:13:31;1.10;99.90
13806;DHT22;6974;53.606;9.872;2022-12-16T00:15:59;1.10;99.90
13806;DHT22;6974;53.606;9.872;2022-12-16T00:18:27;1.10;99.90
13806;DHT22;6974;53.606;9.872;2022-12-16T00:20:54;1.20;99.90
13806;DHT22;6974;53.606;9.872;2022-12-16T00:23:22;1.30;99.90
13806;DHT22;6974;53.606;9.872;2022-12-16T00:25:49;1.30;99.90
13806;DHT22;6974;53.606;9.872;2022-12-16T00:28:16;1.30;99.90
13806;DHT22;6974;53.606;9.872;2022-12-16T00:30:49;1.20;99.90
13806;DHT22;6974;53.606;9.872;2022-12-16T00:33:16;1.20;99.90
13806;DHT22;6974;53.606;9.872;2022-12-16T00:35:44;1.20;99.90
13806;DHT22;6974;53.606;9.872;2022-12-16T00:38:11;1.20;99.90
13806;DHT22;6974;53.606;9.872;2022-12-16T00:40:38;1.30;99.90
13806;DHT22;6974;53.606;9.872;2022-12-16T00:43:05;1.30;99.90
13806;DHT22;6974;53.606;9.872;2022-12-16T00:45:32;1.40;99.90
13806;DHT22;6974;53.606;9.872;2022-12-16T00:48:01;1.40;99.90
13806;DHT22;6974;53.606;9.872;2022-12-16T00:50:28;1.40;99.90
13806;DHT22;6974;53.606;9.872;2022-12-16T00:52:56;1.30;99.90
13806;DHT22;6974;53.606;9.872;2022-12-16T00:55:23;1.30;99.90
13806;DHT22;6974;53.606;9.872;2022-12-16T00:57:51;1.40;99.90
13806;DHT22;6974;53.606;9.872;2022-12-16T01:00:22;1.40;99.90
13806;DHT22;6974;53.606;9.872;2022-12-16T01:02:50;1.40;99.90
13806;DHT22;6974;53.606;9.872;2022-12-16T01:05:20;1.40;99.90
13806;DHT22;6974;53.606;9.872;2022-12-16T01:07:51;1.40;99.90
13806;DHT22;6974;53.606;9.872;2022-12-16T01:10:19;1.30;99.90
13806;DHT22;6974;53.606;9.872;2022-12-16T01:12:46;1.30;99.90
13806;DHT22;6974;53.606;9.872;2022-12-16T01:15:13;1.30;99.90
13806;DHT22;6974;53.606;9.872;2022-12-16T01:17:40;1.30;99.90
13806;DHT22;6974;53.606;9.872;2022-12-16T01:20:08;1.30;99.90
13806;DHT22;6974;53.606;9.872;2022-12-16T01:22:37;1.30;99.90
13806;DHT22;6974;53.606;9.872;2022-12-16T01:25:06;1.30;99.90
13806;DHT22;6974;53.606;9.872;2022-12-16T01:27:33;1.40;99.90
13806;DHT22;6974;53.606;9.872;2022-12-16T01:30:00;1.40;99.90
13806;DHT22;6974;53.606;9.872;2022-12-16T01:32:27;1.40;99.90
13806;DHT22;6974;53.606;9.872;2022-12-16T01:34:54;1.40;99.90
13806;DHT22;6974;53.606;9.872;2022-12-16T01:37:23;1.40;99.90
13806;DHT22;6974;53.606;9.872;2022-12-16T01:39:52;1.40;99.90
13806;DHT22;6974;53.606;9.872;2022-12-16T01:42:21;1.40;99.90
13806;DHT22;6974;53.606;9.872;2022-12-16T01:44:50;1.40;99.90
13806;DHT22;6974;53.606;9.872;2022-12-16T01:47:23;1.40;99.90
13806;DHT22;6974;53.606;9.872;2022-12-16T01:49:54;1.40;99.90
13806;DHT22;6974;53.606;9.872;2022-12-16T01:52:24;1.40;99.90
13806;DHT22;6974;53.606;9.872;2022-12-16T01:54:56;1.40;99.90
13806;DHT22;6974;53.606;9.872;2022-12-16T01:57:28;1.40;99.90
13806;DHT22;6974;53.606;9.872;2022-12-16T01:59:57;1.50;99.90
13806;DHT22;6974;53.606;9.872;2022-12-16T02:02:24;1.40;99.90
13806;DHT22;6974;53.606;9.872;2022-12-16T02:04:51;1.40;99.90
13806;DHT22;6974;53.606;9.872;2022-12-16T02:07:37;1.30;99.90
13806;DHT22;6974;53.606;9.872;2022-12-16T02:10:07;1.40;99.90
13806;DHT22;6974;53.606;9.872;2022-12-16T02:12:41;1.40;99.90
13806;DHT22;6974;53.606;9.872;2022-12-16T02:15:22;1.30;99.90
13806;DHT22;6974;53.606;9.872;2022-12-16T02:17:55;1.30;99.90
13806;DHT22;6974;53.606;9.872;2022-12-16T02:20:56;1.30;99.90
13806;DHT22;6974;53.606;9.872;2022-12-16T02:26:59;1.20;99.90
13806;DHT22;6974;53.606;9.872;2022-12-16T02:29:43;1.20;99.90
13806;DHT22;6974;53.606;9.872;2022-12-16T02:32:21;1.20;99.90
13806;DHT22;6974;53.606;9.872;2022-12-16T02:34:58;1.30;99.90
13806;DHT22;6974;53.606;9.872;2022-12-16T02:37:33;1.30;99.90
13806;DHT22;6974;53.606;9.872;2022-12-16T02:40:06;1.20;99.90
13806;DHT22;6974;53.606;9.872;2022-12-16T02:42:42;1.10;99.90
13806;DHT22;6974;53.606;9.872;2022-12-16T02:45:14;1.10;99.90
13806;DHT22;6974;53.606;9.872;2022-12-16T02:47:45;1.10;99.90
13806;DHT22;6974;53.606;9.872;2022-12-16T02:50:17;1.10;99.90
13806;DHT22;6974;53.606;9.872;2022-12-16T02:52:47;1.10;99.90
13806;DHT22;6974;53.606;9.872;2022-12-16T02:55:15;1.10;99.90
13806;DHT22;6974;53.606;9.872;2022-12-16T02:57:57;1.00;99.90
13806;DHT22;6974;53.606;9.872;2022-12-16T03:00:25;1.00;99.90
13806;DHT22;6974;53.606;9.872;2022-12-16T03:02:58;1.00;99.90
13806;DHT22;6974;53.606;9.872;2022-12-16T03:05:29;1.00;99.90
13806;DHT22;6974;53.606;9.872;2022-12-16T03:07:59;1.00;99.90
13806;DHT22;6974;53.606;9.872;2022-12-16T03:10:31;0.90;99.90
13806;DHT22;6974;53.606;9.872;2022-12-16T03:13:01;0.90;99.90
13806;DHT22;6974;53.606;9.872;2022-12-16T03:15:31;0.90;99.90
13806;DHT22;6974;53.606;9.872;2022-12-16T03:18:02;0.90;99.90
13806;DHT22;6974;53.606;9.872;2022-12-16T03:20:34;0.90;99.90
13806;DHT22;6974;53.606;9.872;2022-12-16T03:23:05;0.90;99.90
13806;DHT22;6974;53.606;9.872;2022-12-16T03:25:38;0.80;99.90
13806;DHT22;6974;53.606;9.872;2022-12-16T03:28:13;0.80;99.90
13806;DHT22;6974;53.606;9.872;2022-12-16T03:30:46;0.70;99.90
13806;DHT22;6974;53.606;9.872;2022-12-16T03:33:20;0.60;99.90
13806;DHT22;6974;53.606;9.872;2022-12-16T03:35:50;0.60;99.90
13806;DHT22;6974;53.606;9.872;2022-12-16T03:38:20;0.50;99.90
13806;DHT22;6974;53.606;9.872;2022-12-16T03:40:48;0.50;99.90
13806;DHT22;6974;53.606;9.872;2022-12-16T03:43:16;0.50;99.90
13806;DHT22;6974;53.606;9.872;2022-12-16T03:45:45;0.50;99.90
13806;DHT22;6974;53.606;9.872;2022-12-16T03:48:12;0.40;99.90
13806;DHT22;6974;53.606;9.872;2022-12-16T03:50:42;0.40;99.90
13806;DHT22;6974;53.606;9.872;2022-12-16T03:53:09;0.40;99.90
13806;DHT22;6974;53.606;9.872;2022-12-16T03:55:36;0.30;99.90
13806;DHT22;6974;53.606;9.872;2022-12-16T03:58:03;0.30;99.90
13806;DHT22;6974;53.606;9.872;2022-12-16T04:00:30;0.30;99.90
13806;DHT22;6974;53.606;9.872;2022-12-16T04:02:58;0.30;99.90
13806;DHT22;6974;53.606;9.872;2022-12-16T04:05:25;0.30;99.90
13806;DHT22;6974;53.606;9.872;2022-12-16T04:07:53;0.20;99.90
13806;DHT22;6974;53.606;9.872;2022-12-16T04:10:20;0.20;99.90
13806;DHT22;6974;53.606;9.872;2022-12-16T04:13:08;0.20;99.90
13806;DHT22;6974;53.606;9.872;2022-12-16T04:15:52;0.20;99.90
13806;DHT22;6974;53.606;9.872;2022-12-16T04:18:42;0.10;99.90
13806;DHT22;6974;53.606;9.872;2022-12-16T04:21:28;0.00;99.90
13806;DHT22;6974;53.606;9.872;2022-12-16T04:24:16;0.00;99.90
13806;DHT22;6974;53.606;9.872;2022-12-16T04:26:49;0.00;99.90
13806;DHT22;6974;53.606;9.872;2022-12-16T04:29:33;0.00;99.90
13806;DHT22;6974;53.606;9.872;2022-12-16T04:32:21;0.00;99.90
13806;DHT22;6974;53.606;9.872;2022-12-16T04:34:48;0.00;99.90
13806;DHT22;6974;53.606;9.872;2022-12-16T04:37:16;-0.10;99.90
13806;DHT22;6974;53.606;9.872;2022-12-16T04:40:03;-0.20;99.90
13806;DHT22;6974;53.606;9.872;2022-12-16T04:42:47;-0.20;99.90
13806;DHT22;6974;53.606;9.872;2022-12-16T04:45:31;-0.20;99.90
13806;DHT22;6974;53.606;9.872;2022-12-16T04:48:16;-0.20;99.90
13806;DHT22;6974;53.606;9.872;2022-12-16T04:51:00;-0.30;99.90
13806;DHT22;6974;53.606;9.872;2022-12-16T04:53:44;-0.30;99.90
13806;DHT22;6974;53.606;9.872;2022-12-16T04:56:30;-0.30;99.90
13806;DHT22;6974;53.606;9.872;2022-12-16T04:59:15;-0.30;99.90
13806;DHT22;6974;53.606;9.872;2022-12-16T05:01:59;-0.30;99.90
13806;DHT22;6974;53.606;9.872;2022-12-16T05:04:44;-0.30;99.90
13806;DHT22;6974;53.606;9.872;2022-12-16T05:07:28;-0.30;99.90
13806;DHT22;6974;53.606;9.872;2022-12-16T05:10:12;-0.30;99.90
13806;DHT22;6974;53.606;9.872;2022-12-16T05:12:57;-0.40;99.90
13806;DHT22;6974;53.606;9.872;2022-12-16T05:15:42;-0.40;99.90
13806;DHT22;6974;53.606;9.872;2022-12-16T05:18:26;-0.40;99.90
13806;DHT22;6974;53.606;9.872;2022-12-16T05:21:10;-0.40;99.90
13806;DHT22;6974;53.606;9.872;2022-12-16T05:23:55;-0.40;99.90
13806;DHT22;6974;53.606;9.872;2022-12-16T05:26:39;-0.40;99.90
13806;DHT22;6974;53.606;9.872;2022-12-16T05:29:25;-0.40;99.90
13806;DHT22;6974;53.606;9.872;2022-12-16T05:32:09;-0.40;99.90
13806;DHT22;6974;53.606;9.872;2022-12-16T05:34:55;-0.40;99.90
13806;DHT22;6974;53.606;9.872;2022-12-16T05:37:39;-0.40;99.90
13806;DHT22;6974;53.606;9.872;2022-12-16T05:40:24;-0.30;99.90
13806;DHT22;6974;53.606;9.872;2022-12-16T05:43:16;-0.40;99.90
13806;DHT22;6974;53.606;9.872;2022-12-16T05:46:02;-0.40;99.90
13806;DHT22;6974;53.606;9.872;2022-12-16T05:48:47;-0.30;99.90
13806;DHT22;6974;53.606;9.872;2022-12-16T05:51:31;-0.30;99.90
13806;DHT22;6974;53.606;9.872;2022-12-16T05:54:15;-0.40;99.90
13806;DHT22;6974;53.606;9.872;2022-12-16T05:56:59;-0.40;99.90
13806;DHT22;6974;53.606;9.872;2022-12-16T05:59:44;-0.40;99.90
13806;DHT22;6974;53.606;9.872;2022-12-16T06:02:30;-0.30;99.90
13806;DHT22;6974;53.606;9.872;2022-12-16T06:05:15;-0.40;99.90
13806;DHT22;6974;53.606;9.872;2022-12-16T06:08:00;-0.40;99.90
13806;DHT22;6974;53.606;9.872;2022-12-16T06:10:44;-0.40;99.90
13806;DHT22;6974;53.606;9.872;2022-12-16T06:13:28;-0.40;99.90
13806;DHT22;6974;53.606;9.872;2022-12-16T06:16:13;-0.40;99.90
13806;DHT22;6974;53.606;9.872;2022-12-16T06:18:59;-0.40;99.90
13806;DHT22;6974;53.606;9.872;2022-12-16T06:21:43;-0.50;99.90
13806;DHT22;6974;53.606;9.872;2022-12-16T06:24:27;-0.50;99.90
13806;DHT22;6974;53.606;9.872;2022-12-16T06:27:11;-0.60;99.90
13806;DHT22;6974;53.606;9.872;2022-12-16T06:29:55;-0.60;99.90
13806;DHT22;6974;53.606;9.872;2022-12-16T06:32:41;-0.60;99.90
13806;DHT22;6974;53.606;9.872;2022-12-16T06:35:27;-0.60;99.90
13806;DHT22;6974;53.606;9.872;2022-12-16T06:38:12;-0.50;99.90
13806;DHT22;6974;53.606;9.872;2022-12-16T06:40:56;-0.50;99.90
13806;DHT22;6974;53.606;9.872;2022-12-16T06:43:40;-0.50;99.90
13806;DHT22;6974;53.606;9.872;2022-12-16T06:46:24;-0.40;99.90
13806;DHT22;6974;53.606;9.872;2022-12-16T06:49:08;-0.40;99.90
13806;DHT22;6974;53.606;9.872;2022-12-16T06:51:54;-0.40;99.90
13806;DHT22;6974;53.606;9.872;2022-12-16T06:54:38;-0.30;99.90
13806;DHT22;6974;53.606;9.872;2022-12-16T06:57:23;-0.40;99.90
13806;DHT22;6974;53.606;9.872;2022-12-16T07:00:08;-0.40;99.90
13806;DHT22;6974;53.606;9.872;2022-12-16T07:02:52;-0.40;99.90
13806;DHT22;6974;53.606;9.872;2022-12-16T07:05:37;-0.40;99.90
13806;DHT22;6974;53.606;9.872;2022-12-16T07:08:19;-0.40;99.90
13806;DHT22;6974;53.606;9.872;2022-12-16T07:11:04;-0.50;99.90
13806;DHT22;6974;53.606;9.872;2022-12-16T07:13:48;-0.40;99.90
13806;DHT22;6974;53.606;9.872;2022-12-16T07:16:32;-0.40;99.90
13806;DHT22;6974;53.606;9.872;2022-12-16T07:19:16;-0.30;99.90
13806;DHT22;6974;53.606;9.872;2022-12-16T07:22:01;-0.30;99.90
13806;DHT22;6974;53.606;9.872;2022-12-16T07:24:46;-0.30;99.90
13806;DHT22;6974;53.606;9.872;2022-12-16T07:27:31;-0.30;99.90
13806;DHT22;6974;53.606;9.872;2022-12-16T07:30:14;-0.30;99.90
13806;DHT22;6974;53.606;9.872;2022-12-16T07:32:59;-0.30;99.90
13806;DHT22;6974;53.606;9.872;2022-12-16T07:35:43;-0.30;99.90
13806;DHT22;6974;53.606;9.872;2022-12-16T07:38:27;-0.30;99.90
13806;DHT22;6974;53.606;9.872;2022-12-16T07:41:13;-0.30;99.90
13806;DHT22;6974;53.606;9.872;2022-12-16T07:43:57;-0.30;99.90
13806;DHT22;6974;53.606;9.872;2022-12-16T07:46:42;-0.30;99.90
13806;DHT22;6974;53.606;9.872;2022-12-16T07:49:26;-0.40;99.90
13806;DHT22;6974;53.606;9.872;2022-12-16T07:52:07;-0.40;99.90
13806;DHT22;6974;53.606;9.872;2022-12-16T07:54:51;-0.30;99.90
13806;DHT22;6974;53.606;9.872;2022-12-16T07:57:37;-0.30;99.90
13806;DHT22;6974;53.606;9.872;2022-12-16T08:00:21;-0.30;99.90
13806;DHT22;6974;53.606;9.872;2022-12-16T08:03:06;-0.20;99.90
13806;DHT22;6974;53.606;9.872;2022-12-16T08:05:50;-0.20;99.90
13806;DHT22;6974;53.606;9.872;2022-12-16T08:08:34;-0.20;99.90
13806;DHT22;6974;53.606;9.872;2022-12-16T08:11:18;0.00;99.90
13806;DHT22;6974;53.606;9.872;2022-12-16T08:14:04;0.00;99.90
13806;DHT22;6974;53.606;9.872;2022-12-16T08:16:48;0.10;99.90
13806;DHT22;6974;53.606;9.872;2022-12-16T08:19:32;0.20;99.90
13806;DHT22;6974;53.606;9.872;2022-12-16T08:22:16;0.20;99.90
13806;DHT22;6974;53.606;9.872;2022-12-16T08:25:00;0.20;99.90
13806;DHT22;6974;53.606;9.872;2022-12-16T08:27:44;0.20;99.90
13806;DHT22;6974;53.606;9.872;2022-12-16T08:30:30;0.20;99.90
13806;DHT22;6974;53.606;9.872;2022-12-16T08:33:14;0.10;99.90
13806;DHT22;6974;53.606;9.872;2022-12-16T08:35:58;0.10;99.90
13806;DHT22;6974;53.606;9.872;2022-12-16T08:38:42;0.20;99.90
13806;DHT22;6974;53.606;9.872;2022-12-16T08:41:27;0.20;99.90
13806;DHT22;6974;53.606;9.872;2022-12-16T08:44:11;0.20;99.90
13806;DHT22;6974;53.606;9.872;2022-12-16T08:46:57;0.20;99.90
13806;DHT22;6974;53.606;9.872;2022-12-16T08:49:44;0.20;99.90
13806;DHT22;6974;53.606;9.872;2022-12-16T08:52:29;0.30;99.90
13806;DHT22;6974;53.606;9.872;2022-12-16T08:55:14;0.40;99.90
13806;DHT22;6974;53.606;9.872;2022-12-16T08:57:58;0.40;99.90
13806;DHT22;6974;53.606;9.872;2022-12-16T09:00:42;0.50;99.90
13806;DHT22;6974;53.606;9.872;2022-12-16T09:03:28;0.50;99.90
13806;DHT22;6974;53.606;9.872;2022-12-16T09:06:12;0.60;99.90
13806;DHT22;6974;53.606;9.872;2022-12-16T09:08:56;0.60;99.90
13806;DHT22;6974;53.606;9.872;2022-12-16T09:11:40;0.60;99.90
13806;DHT22;6974;53.606;9.872;2022-12-16T09:14:24;0.60;99.90
13806;DHT22;6974;53.606;9.872;2022-12-16T09:17:17;0.60;99.90
13806;DHT22;6974;53.606;9.872;2022-12-16T09:20:03;0.70;99.90
13806;DHT22;6974;53.606;9.872;2022-12-16T09:22:47;0.70;99.90
13806;DHT22;6974;53.606;9.872;2022-12-16T09:25:31;0.70;99.90
13806;DHT22;6974;53.606;9.872;2022-12-16T09:28:16;0.80;99.90
13806;DHT22;6974;53.606;9.872;2022-12-16T09:31:00;0.80;99.90
13806;DHT22;6974;53.606;9.872;2022-12-16T09:33:44;0.80;99.90
13806;DHT22;6974;53.606;9.872;2022-12-16T09:36:30;0.90;99.90
13806;DHT22;6974;53.606;9.872;2022-12-16T09:39:15;0.90;99.90
13806;DHT22;6974;53.606;9.872;2022-12-16T09:42:04;0.90;99.90
13806;DHT22;6974;53.606;9.872;2022-12-16T09:44:58;1.00;99.90
13806;DHT22;6974;53.606;9.872;2022-12-16T09:47:52;1.00;99.90
13806;DHT22;6974;53.606;9.872;2022-12-16T09:50:39;1.00;99.90
13806;DHT22;6974;53.606;9.872;2022-12-16T09:53:30;0.90;99.90
13806;DHT22;6974;53.606;9.872;2022-12-16T09:56:17;1.00;99.90
13806;DHT22;6974;53.606;9.872;2022-12-16T09:59:06;1.00;99.90
13806;DHT22;6974;53.606;9.872;2022-12-16T10:01:54;1.00;99.90
13806;DHT22;6974;53.606;9.872;2022-12-16T10:04:39;1.10;99.90
13806;DHT22;6974;53.606;9.872;2022-12-16T10:07:28;1.10;99.90
13806;DHT22;6974;53.606;9.872;2022-12-16T10:10:23;1.20;99.90
13806;DHT22;6974;53.606;9.872;2022-12-16T10:13:16;1.20;99.90
13806;DHT22;6974;53.606;9.872;2022-12-16T10:16:09;1.20;99.90
13806;DHT22;6974;53.606;9.872;2022-12-16T10:18:58;1.30;99.90
13806;DHT22;6974;53.606;9.872;2022-12-16T10:21:48;1.30;99.90
13806;DHT22;6974;53.606;9.872;2022-12-16T10:24:43;1.30;99.90
13806;DHT22;6974;53.606;9.872;2022-12-16T10:27:37;1.30;99.90
13806;DHT22;6974;53.606;9.872;2022-12-16T10:30:25;1.30;99.90
13806;DHT22;6974;53.606;9.872;2022-12-16T10:33:11;1.30;99.90
13806;DHT22;6974;53.606;9.872;2022-12-16T10:35:56;1.30;99.90
13806;DHT22;6974;53.606;9.872;2022-12-16T10:38:43;1.30;99.90
13806;DHT22;6974;53.606;9.872;2022-12-16T10:41:32;1.30;99.90
13806;DHT22;6974;53.606;9.872;2022-12-16T10:44:23;1.30;99.90
13806;DHT22;6974;53.606;9.872;2022-12-16T10:47:09;1.30;99.90
13806;DHT22;6974;53.606;9.872;2022-12-16T10:49:55;1.40;99.90
13806;DHT22;6974;53.606;9.872;2022-12-16T10:52:48;1.40;99.90
13806;DHT22;6974;53.606;9.872;2022-12-16T10:55:41;1.40;99.90
13806;DHT22;6974;53.606;9.872;2022-12-16T10:58:32;1.50;99.90
13806;DHT22;6974;53.606;9.872;2022-12-16T11:01:22;1.50;99.90
13806;DHT22;6974;53.606;9.872;2022-12-16T11:04:31;1.40;99.90
13806;DHT22;6974;53.606;9.872;2022-12-16T11:07:35;1.40;99.90
13806;DHT22;6974;53.606;9.872;2022-12-16T11:10:26;1.40;99.90
13806;DHT22;6974;53.606;9.872;2022-12-16T11:13:16;1.40;99.90
13806;DHT22;6974;53.606;9.872;2022-12-16T11:16:10;1.40;99.90
13806;DHT22;6974;53.606;9.872;2022-12-16T11:18:56;1.50;99.90
13806;DHT22;6974;53.606;9.872;2022-12-16T11:21:41;1.50;99.90
13806;DHT22;6974;53.606;9.872;2022-12-16T11:24:26;1.50;99.90
13806;DHT22;6974;53.606;9.872;2022-12-16T11:27:20;1.50;99.90
13806;DHT22;6974;53.606;9.872;2022-12-16T11:30:16;1.60;99.90
13806;DHT22;6974;53.606;9.872;2022-12-16T11:33:09;1.60;99.90
13806;DHT22;6974;53.606;9.872;2022-12-16T11:36:04;1.60;99.90
13806;DHT22;6974;53.606;9.872;2022-12-16T11:38:50;1.60;99.90
13806;DHT22;6974;53.606;9.872;2022-12-16T11:41:37;1.60;99.90
13806;DHT22;6974;53.606;9.872;2022-12-16T11:44:25;1.60;99.90
13806;DHT22;6974;53.606;9.872;2022-12-16T11:47:17;1.60;99.90
13806;DHT22;6974;53.606;9.872;2022-12-16T11:50:09;1.70;99.90
13806;DHT22;6974;53.606;9.872;2022-12-16T11:52:56;1.60;99.90
13806;DHT22;6974;53.606;9.872;2022-12-16T11:55:44;1.60;99.90
13806;DHT22;6974;53.606;9.872;2022-12-16T11:58:35;1.70;99.90
13806;DHT22;6974;53.606;9.872;2022-12-16T12:01:23;1.70;99.90
13806;DHT22;6974;53.606;9.872;2022-12-16T12:04:07;1.70;99.90
13806;DHT22;6974;53.606;9.872;2022-12-16T12:07:10;1.70;99.90
13806;DHT22;6974;53.606;9.872;2022-12-16T12:10:06;1.80;99.90
13806;DHT22;6974;53.606;9.872;2022-12-16T12:13:25;1.80;99.90
13806;DHT22;6974;53.606;9.872;2022-12-16T12:16:17;1.70;99.90
13806;DHT22;6974;53.606;9.872;2022-12-16T12:19:06;1.80;99.90
13806;DHT22;6974;53.606;9.872;2022-12-16T12:21:57;1.80;99.90
13806;DHT22;6974;53.606;9.872;2022-12-16T12:24:51;1.80;99.90
13806;DHT22;6974;53.606;9.872;2022-12-16T12:27:43;1.80;99.90
13806;DHT22;6974;53.606;9.872;2022-12-16T12:30:41;1.80;99.90
13806;DHT22;6974;53.606;9.872;2022-12-16T12:33:34;1.80;99.90
13806;DHT22;6974;53.606;9.872;2022-12-16T12:36:25;1.80;99.90
13806;DHT22;6974;53.606;9.872;2022-12-16T12:39:18;1.70;99.90
13806;DHT22;6974;53.606;9.872;2022-12-16T12:42:22;1.70;99.90
13806;DHT22;6974;53.606;9.872;2022-12-16T12:45:40;1.80;99.90
13806;DHT22;6974;53.606;9.872;2022-12-16T12:48:30;1.80;99.90
13806;DHT22;6974;53.606;9.872;2022-12-16T12:51:23;1.80;99.90
13806;DHT22;6974;53.606;9.872;2022-12-16T12:54:14;1.80;99.90
13806;DHT22;6974;53.606;9.872;2022-12-16T12:57:03;1.80;99.90
13806;DHT22;6974;53.606;9.872;2022-12-16T12:59:55;1.80;99.90
13806;DHT22;6974;53.606;9.872;2022-12-16T13:02:48;1.80;99.90
13806;DHT22;6974;53.606;9.872;2022-12-16T13:05:37;2.00;99.90
13806;DHT22;6974;53.606;9.872;2022-12-16T13:08:39;1.90;99.90
13806;DHT22;6974;53.606;9.872;2022-12-16T13:11:25;1.80;99.90
13806;DHT22;6974;53.606;9.872;2022-12-16T13:17:27;1.70;99.90
13806;DHT22;6974;53.606;9.872;2022-12-16T13:20:35;1.70;99.90
13806;DHT22;6974;53.606;9.872;2022-12-16T13:23:38;1.70;99.90
13806;DHT22;6974;53.606;9.872;2022-12-16T13:26:24;1.70;99.90
13806;DHT22;6974;53.606;9.872;2022-12-16T13:29:18;1.70;99.90
13806;DHT22;6974;53.606;9.872;2022-12-16T13:32:19;1.70;99.90
13806;DHT22;6974;53.606;9.872;2022-12-16T13:35:16;1.70;99.90
13806;DHT22;6974;53.606;9.872;2022-12-16T13:38:05;1.70;99.90
13806;DHT22;6974;53.606;9.872;2022-12-16T13:40:53;1.70;99.90
13806;DHT22;6974;53.606;9.872;2022-12-16T13:43:46;1.70;99.90
13806;DHT22;6974;53.606;9.872;2022-12-16T13:46:40;1.70;99.90
13806;DHT22;6974;53.606;9.872;2022-12-16T13:49:45;1.70;99.90
13806;DHT22;6974;53.606;9.872;2022-12-16T13:52:43;1.70;99.90
13806;DHT22;6974;53.606;9.872;2022-12-16T13:55:34;1.70;99.90
13806;DHT22;6974;53.606;9.872;2022-12-16T13:58:31;1.60;99.90
13806;DHT22;6974;53.606;9.872;2022-12-16T14:01:21;1.60;99.90
13806;DHT22;6974;53.606;9.872;2022-12-16T14:04:09;1.60;99.90
13806;DHT22;6974;53.606;9.872;2022-12-16T14:06:58;1.60;99.90
13806;DHT22;6974;53.606;9.872;2022-12-16T14:09:44;1.50;99.90
13806;DHT22;6974;53.606;9.872;2022-12-16T14:12:47;1.50;99.90
13806;DHT22;6974;53.606;9.872;2022-12-16T14:15:45;1.50;99.90
13806;DHT22;6974;53.606;9.872;2022-12-16T14:18:41;1.50;99.90
13806;DHT22;6974;53.606;9.872;2022-12-16T14:21:32;1.50;99.90
13806;DHT22;6974;53.606;9.872;2022-12-16T14:24:23;1.50;99.90
13806;DHT22;6974;53.606;9.872;2022-12-16T14:27:13;1.40;99.90
13806;DHT22;6974;53.606;9.872;2022-12-16T14:30:00;1.40;99.90
13806;DHT22;6974;53.606;9.872;2022-12-16T14:32:45;1.40;99.90
13806;DHT22;6974;53.606;9.872;2022-12-16T14:35:29;1.40;99.90
13806;DHT22;6974;53.606;9.872;2022-12-16T14:38:23;1.40;99.90
13806;DHT22;6974;53.606;9.872;2022-12-16T14:41:12;1.30;99.90
13806;DHT22;6974;53.606;9.872;2022-12-16T14:43:57;1.30;99.90
13806;DHT22;6974;53.606;9.872;2022-12-16T14:46:48;1.30;99.90
13806;DHT22;6974;53.606;9.872;2022-12-16T14:49:33;1.20;99.90
13806;DHT22;6974;53.606;9.872;2022-12-16T14:52:20;1.10;99.90
13806;DHT22;6974;53.606;9.872;2022-12-16T14:55:10;1.10;99.90
13806;DHT22;6974;53.606;9.872;2022-12-16T14:58:04;1.10;99.90
13806;DHT22;6974;53.606;9.872;2022-12-16T15:00:49;1.10;99.90
13806;DHT22;6974;53.606;9.872;2022-12-16T15:03:37;1.00;99.90
13806;DHT22;6974;53.606;9.872;2022-12-16T15:06:26;1.00;99.90
13806;DHT22;6974;53.606;9.872;2022-12-16T15:09:19;1.00;99.90
13806;DHT22;6974;53.606;9.872;2022-12-16T15:12:06;0.90;99.90
13806;DHT22;6974;53.606;9.872;2022-12-16T15:14:52;0.90;99.90
13806;DHT22;6974;53.606;9.872;2022-12-16T15:17:43;0.90;99.90
13806;DHT22;6974;53.606;9.872;2022-12-16T15:20:34;0.90;99.90
13806;DHT22;6974;53.606;9.872;2022-12-16T15:23:23;0.90;99.90
13806;DHT22;6974;53.606;9.872;2022-12-16T15:26:09;0.90;99.90
13806;DHT22;6974;53.606;9.872;2022-12-16T15:28:59;0.90;99.90
13806;DHT22;6974;53.606;9.872;2022-12-16T15:31:43;0.90;99.90
13806;DHT22;6974;53.606;9.872;2022-12-16T15:34:30;0.80;99.90
13806;DHT22;6974;53.606;9.872;2022-12-16T15:37:19;0.90;99.90
13806;DHT22;6974;53.606;9.872;2022-12-16T15:40:14;0.90;99.90
13806;DHT22;6974;53.606;9.872;2022-12-16T15:43:01;0.90;99.90
13806;DHT22;6974;53.606;9.872;2022-12-16T15:45:51;0.90;99.90
13806;DHT22;6974;53.606;9.872;2022-12-16T15:48:36;1.00;99.90
13806;DHT22;6974;53.606;9.872;2022-12-16T15:51:22;1.00;99.90
13806;DHT22;6974;53.606;9.872;2022-12-16T15:54:17;1.00;99.90
13806;DHT22;6974;53.606;9.872;2022-12-16T15:57:01;1.00;99.90
13806;DHT22;6974;53.606;9.872;2022-12-16T15:59:56;1.00;99.90
13806;DHT22;6974;53.606;9.872;2022-12-16T16:02:37;1.00;99.90
13806;DHT22;6974;53.606;9.872;2022-12-16T16:05:27;1.00;99.90
13806;DHT22;6974;53.606;9.872;2022-12-16T16:08:13;1.00;99.90
13806;DHT22;6974;53.606;9.872;2022-12-16T16:11:08;0.90;99.90
13806;DHT22;6974;53.606;9.872;2022-12-16T16:13:52;0.90;99.90
13806;DHT22;6974;53.606;9.872;2022-12-16T16:16:36;0.90;99.90
13806;DHT22;6974;53.606;9.872;2022-12-16T16:19:22;0.80;99.90
13806;DHT22;6974;53.606;9.872;2022-12-16T16:22:04;0.80;99.90
13806;DHT22;6974;53.606;9.872;2022-12-16T16:24:48;0.70;99.90
13806;DHT22;6974;53.606;9.872;2022-12-16T16:27:34;0.70;99.90
13806;DHT22;6974;53.606;9.872;2022-12-16T16:30:18;0.70;99.90
13806;DHT22;6974;53.606;9.872;2022-12-16T16:33:03;0.70;99.90
13806;DHT22;6974;53.606;9.872;2022-12-16T16:35:47;0.70;99.90
13806;DHT22;6974;53.606;9.872;2022-12-16T16:38:31;0.70;99.90
13806;DHT22;6974;53.606;9.872;2022-12-16T16:41:15;0.70;99.90
13806;DHT22;6974;53.606;9.872;2022-12-16T16:44:01;0.60;99.90
13806;DHT22;6974;53.606;9.872;2022-12-16T16:46:46;0.60;99.90
13806;DHT22;6974;53.606;9.872;2022-12-16T16:49:31;0.60;99.90
13806;DHT22;6974;53.606;9.872;2022-12-16T16:52:18;0.60;99.90
13806;DHT22;6974;53.606;9.872;2022-12-16T16:55:04;0.70;99.90
13806;DHT22;6974;53.606;9.872;2022-12-16T16:57:49;0.70;99.90
13806;DHT22;6974;53.606;9.872;2022-12-16T17:00:35;0.70;99.90
13806;DHT22;6974;53.606;9.872;2022-12-16T17:03:19;0.70;99.90
13806;DHT22;6974;53.606;9.872;2022-12-16T17:06:04;0.70;99.90
13806;DHT22;6974;53.606;9.872;2022-12-16T17:08:48;0.80;99.90
13806;DHT22;6974;53.606;9.872;2022-12-16T17:11:32;0.70;99.90
13806;DHT22;6974;53.606;9.872;2022-12-16T17:14:18;0.80;99.90
13806;DHT22;6974;53.606;9.872;2022-12-16T17:17:05;0.80;99.90
13806;DHT22;6974;53.606;9.872;2022-12-16T17:19:49;0.80;99.90
13806;DHT22;6974;53.606;9.872;2022-12-16T17:22:34;0.80;99.90
13806;DHT22;6974;53.606;9.872;2022-12-16T17:25:19;0.80;99.90
13806;DHT22;6974;53.606;9.872;2022-12-16T17:28:03;0.80;99.90
13806;DHT22;6974;53.606;9.872;2022-12-16T17:30:48;0.80;99.90
13806;DHT22;6974;53.606;9.872;2022-12-16T17:33:34;0.70;99.90
13806;DHT22;6974;53.606;9.872;2022-12-16T17:36:18;0.80;99.90
13806;DHT22;6974;53.606;9.872;2022-12-16T17:39:04;0.80;99.90
13806;DHT22;6974;53.606;9.872;2022-12-16T17:41:48;0.80;99.90
13806;DHT22;6974;53.606;9.872;2022-12-16T17:44:33;0.80;99.90
13806;DHT22;6974;53.606;9.872;2022-12-16T17:47:18;0.80;99.90
13806;DHT22;6974;53.606;9.872;2022-12-16T17:50:05;0.80;99.90